sensor_id;sensor_type;location;lat;lon;timestamp;temperature;humidity
55213;DHT22;41083;52.932;6.674;2022-12-10T00:00:52;0.20;99.90
55213;DHT22;41083;52.932;6.674;2022-12-10T00:03:18;0.20;99.90
55213;DHT22;41083;52.932;6.674;2022-12-10T00:05:44;0.20;99.90
55213;DHT22;41083;52.932;6.674;2022-12-10T00:08:09;0.20;99.90
55213;DHT22;41083;52.932;6.674;2022-12-10T00:10:39;0.20;99.90
55213;DHT22;41083;52.932;6.674;2022-12-10T00:13:05;0.20;99.90
55213;DHT22;41083;52.932;6.674;2022-12-10T00:15:33;0.20;99.90
55213;DHT22;41083;52.932;6.674;2022-12-10T00:17:59;0.20;99.90
55213;DHT22;41083;52.932;6.674;2022-12-10T00:20:24;0.30;99.90
55213;DHT22;41083;52.932;6.674;2022-12-10T00:22:50;0.30;99.90
55213;DHT22;41083;52.932;6.674;2022-12-10T00:25:16;0.30;99.90
55213;DHT22;41083;52.932;6.674;2022-12-10T00:27:42;0.40;99.90
55213;DHT22;41083;52.932;6.674;2022-12-10T00:30:07;0.40;99.90
55213;DHT22;41083;52.932;6.674;2022-12-10T00:32:33;0.40;99.90
55213;DHT22;41083;52.932;6.674;2022-12-10T00:34:59;0.50;99.90
55213;DHT22;41083;52.932;6.674;2022-12-10T00:37:24;0.40;99.90
55213;DHT22;41083;52.932;6.674;2022-12-10T00:39:50;0.50;99.90
55213;DHT22;41083;52.932;6.674;2022-12-10T00:42:15;0.50;99.90
55213;DHT22;41083;52.932;6.674;2022-12-10T00:44:41;0.50;99.90
55213;DHT22;41083;52.932;6.674;2022-12-10T00:47:07;0.50;99.90
55213;DHT22;41083;52.932;6.674;2022-12-10T00:49:32;0.40;99.90
55213;DHT22;41083;52.932;6.674;2022-12-10T00:51:58;0.40;99.90
55213;DHT22;41083;52.932;6.674;2022-12-10T00:54:23;0.40;99.90
55213;DHT22;41083;52.932;6.674;2022-12-10T00:56:49;0.40;99.90
55213;DHT22;41083;52.932;6.674;2022-12-10T00:59:14;0.30;99.90
55213;DHT22;41083;52.932;6.674;2022-12-10T01:01:42;0.30;99.90
55213;DHT22;41083;52.932;6.674;2022-12-10T01:04:16;0.40;99.90
55213;DHT22;41083;52.932;6.674;2022-12-10T01:06:46;0.40;99.90
55213;DHT22;41083;52.932;6.674;2022-12-10T01:09:15;0.40;99.90
55213;DHT22;41083;52.932;6.674;2022-12-10T01:11:42;0.40;99.90
55213;DHT22;41083;52.932;6.674;2022-12-10T01:14:11;0.40;99.90
55213;DHT22;41083;52.932;6.674;2022-12-10T01:16:37;0.40;99.90
55213;DHT22;41083;52.932;6.674;2022-12-10T01:19:03;0.30;99.90
55213;DHT22;41083;52.932;6.674;2022-12-10T01:21:29;0.40;99.90
55213;DHT22;41083;52.932;6.674;2022-12-10T01:23:55;0.30;99.90
55213;DHT22;41083;52.932;6.674;2022-12-10T01:26:24;0.30;99.90
55213;DHT22;41083;52.932;6.674;2022-12-10T01:28:50;0.30;99.90
55213;DHT22;41083;52.932;6.674;2022-12-10T01:31:18;0.30;99.90
55213;DHT22;41083;52.932;6.674;2022-12-10T01:33:45;0.30;99.90
55213;DHT22;41083;52.932;6.674;2022-12-10T01:36:16;0.30;99.90
55213;DHT22;41083;52.932;6.674;2022-12-10T01:38:42;0.20;99.90
55213;DHT22;41083;52.932;6.674;2022-12-10T01:41:15;0.20;99.90
55213;DHT22;41083;52.932;6.674;2022-12-10T01:46:55;0.20;99.90
55213;DHT22;41083;52.932;6.674;2022-12-10T01:49:33;0.20;99.90
55213;DHT22;41083;52.932;6.674;2022-12-10T01:51:59;0.20;99.90
55213;DHT22;41083;52.932;6.674;2022-12-10T01:54:33;0.20;99.90
55213;DHT22;41083;52.932;6.674;2022-12-10T01:57:05;0.10;99.90
55213;DHT22;41083;52.932;6.674;2022-12-10T01:59:32;0.10;99.90
55213;DHT22;41083;52.932;6.674;2022-12-10T02:07:39;0.10;99.90
55213;DHT22;41083;52.932;6.674;2022-12-10T02:10:30;0.10;99.90
55213;DHT22;41083;52.932;6.674;2022-12-10T02:13:13;0.10;99.90
55213;DHT22;41083;52.932;6.674;2022-12-10T02:15:49;0.00;99.90
55213;DHT22;41083;52.932;6.674;2022-12-10T02:18:42;0.10;99.90
55213;DHT22;41083;52.932;6.674;2022-12-10T02:21:16;0.10;99.90
55213;DHT22;41083;52.932;6.674;2022-12-10T02:23:49;0.10;99.90
55213;DHT22;41083;52.932;6.674;2022-12-10T02:26:22;0.00;99.90
55213;DHT22;41083;52.932;6.674;2022-12-10T02:31:18;0.00;99.90
55213;DHT22;41083;52.932;6.674;2022-12-10T02:33:50;0.00;99.90
55213;DHT22;41083;52.932;6.674;2022-12-10T02:36:17;0.00;99.90
55213;DHT22;41083;52.932;6.674;2022-12-10T02:38:44;0.00;99.90
55213;DHT22;41083;52.932;6.674;2022-12-10T02:41:22;0.00;99.90
55213;DHT22;41083;52.932;6.674;2022-12-10T02:43:51;0.00;99.90
55213;DHT22;41083;52.932;6.674;2022-12-10T02:46:18;0.00;99.90
55213;DHT22;41083;52.932;6.674;2022-12-10T02:48:45;0.00;99.90
55213;DHT22;41083;52.932;6.674;2022-12-10T02:51:12;0.00;99.90
55213;DHT22;41083;52.932;6.674;2022-12-10T02:53:44;0.00;99.90
55213;DHT22;41083;52.932;6.674;2022-12-10T02:56:21;0.00;99.90
55213;DHT22;41083;52.932;6.674;2022-12-10T03:04:07;0.00;99.90
55213;DHT22;41083;52.932;6.674;2022-12-10T03:06:47;0.00;99.90
55213;DHT22;41083;52.932;6.674;2022-12-10T03:09:26;0.00;99.90
55213;DHT22;41083;52.932;6.674;2022-12-10T03:12:31;0.00;99.90
55213;DHT22;41083;52.932;6.674;2022-12-10T03:14:59;0.00;99.90
55213;DHT22;41083;52.932;6.674;2022-12-10T03:17:27;0.00;99.90
55213;DHT22;41083;52.932;6.674;2022-12-10T03:19:55;-0.10;99.90
55213;DHT22;41083;52.932;6.674;2022-12-10T03:22:23;-0.10;99.90
55213;DHT22;41083;52.932;6.674;2022-12-10T03:24:49;-0.10;99.90
55213;DHT22;41083;52.932;6.674;2022-12-10T03:27:16;-0.10;99.90
55213;DHT22;41083;52.932;6.674;2022-12-10T03:29:50;-0.20;99.90
55213;DHT22;41083;52.932;6.674;2022-12-10T03:32:19;-0.20;99.90
55213;DHT22;41083;52.932;6.674;2022-12-10T03:34:46;-0.10;99.90
55213;DHT22;41083;52.932;6.674;2022-12-10T03:37:13;-0.20;99.90
55213;DHT22;41083;52.932;6.674;2022-12-10T03:39:40;-0.20;99.90
55213;DHT22;41083;52.932;6.674;2022-12-10T03:42:07;-0.20;99.90
55213;DHT22;41083;52.932;6.674;2022-12-10T03:44:35;-0.20;99.90
55213;DHT22;41083;52.932;6.674;2022-12-10T03:47:02;-0.20;99.90
55213;DHT22;41083;52.932;6.674;2022-12-10T03:49:28;-0.20;99.90
55213;DHT22;41083;52.932;6.674;2022-12-10T03:51:54;-0.30;99.90
55213;DHT22;41083;52.932;6.674;2022-12-10T03:54:20;-0.20;99.90
55213;DHT22;41083;52.932;6.674;2022-12-10T03:56:45;-0.20;99.90
55213;DHT22;41083;52.932;6.674;2022-12-10T03:59:11;-0.20;99.90
55213;DHT22;41083;52.932;6.674;2022-12-10T04:01:36;-0.20;99.90
55213;DHT22;41083;52.932;6.674;2022-12-10T04:04:04;-0.20;99.90
55213;DHT22;41083;52.932;6.674;2022-12-10T04:06:29;-0.20;99.90
55213;DHT22;41083;52.932;6.674;2022-12-10T04:08:55;-0.20;99.90
55213;DHT22;41083;52.932;6.674;2022-12-10T04:11:21;-0.20;99.90
55213;DHT22;41083;52.932;6.674;2022-12-10T04:13:46;-0.30;99.90
55213;DHT22;41083;52.932;6.674;2022-12-10T04:16:32;-0.20;99.90
55213;DHT22;41083;52.932;6.674;2022-12-10T04:19:10;-0.20;99.90
55213;DHT22;41083;52.932;6.674;2022-12-10T04:21:38;-0.20;99.90
55213;DHT22;41083;52.932;6.674;2022-12-10T04:24:28;-0.30;99.90
55213;DHT22;41083;52.932;6.674;2022-12-10T04:27:18;-0.30;99.90
55213;DHT22;41083;52.932;6.674;2022-12-10T04:29:44;-0.30;99.90
55213;DHT22;41083;52.932;6.674;2022-12-10T04:32:10;-0.30;99.90
55213;DHT22;41083;52.932;6.674;2022-12-10T04:34:36;-0.30;99.90
55213;DHT22;41083;52.932;6.674;2022-12-10T04:37:03;-0.30;99.90
55213;DHT22;41083;52.932;6.674;2022-12-10T04:39:28;-0.30;99.90
55213;DHT22;41083;52.932;6.674;2022-12-10T04:41:54;-0.30;99.90
55213;DHT22;41083;52.932;6.674;2022-12-10T04:44:20;-0.30;99.90
55213;DHT22;41083;52.932;6.674;2022-12-10T04:46:46;-0.30;99.90
55213;DHT22;41083;52.932;6.674;2022-12-10T04:49:12;-0.30;99.90
55213;DHT22;41083;52.932;6.674;2022-12-10T04:51:38;-0.30;99.90
55213;DHT22;41083;52.932;6.674;2022-12-10T04:54:05;-0.30;99.90
55213;DHT22;41083;52.932;6.674;2022-12-10T04:56:31;-0.30;99.90
55213;DHT22;41083;52.932;6.674;2022-12-10T04:58:58;-0.30;99.90
55213;DHT22;41083;52.932;6.674;2022-12-10T05:01:24;-0.30;99.90
55213;DHT22;41083;52.932;6.674;2022-12-10T05:03:50;-0.30;99.90
55213;DHT22;41083;52.932;6.674;2022-12-10T05:06:18;-0.30;99.90
55213;DHT22;41083;52.932;6.674;2022-12-10T05:08:44;-0.40;99.90
55213;DHT22;41083;52.932;6.674;2022-12-10T05:11:15;-0.40;99.90
55213;DHT22;41083;52.932;6.674;2022-12-10T05:13:42;-0.40;99.90
55213;DHT22;41083;52.932;6.674;2022-12-10T05:16:09;-0.40;99.90
55213;DHT22;41083;52.932;6.674;2022-12-10T05:18:36;-0.40;99.90
55213;DHT22;41083;52.932;6.674;2022-12-10T05:21:04;-0.50;99.90
55213;DHT22;41083;52.932;6.674;2022-12-10T05:23:31;-0.40;99.90
55213;DHT22;41083;52.932;6.674;2022-12-10T05:26:08;-0.50;99.90
55213;DHT22;41083;52.932;6.674;2022-12-10T05:28:39;-0.50;99.90
55213;DHT22;41083;52.932;6.674;2022-12-10T05:31:14;-0.50;99.90
55213;DHT22;41083;52.932;6.674;2022-12-10T05:33:40;-0.60;99.90
55213;DHT22;41083;52.932;6.674;2022-12-10T05:36:07;-0.60;99.90
55213;DHT22;41083;52.932;6.674;2022-12-10T05:38:33;-0.60;99.90
55213;DHT22;41083;52.932;6.674;2022-12-10T05:41:04;-0.60;99.90
55213;DHT22;41083;52.932;6.674;2022-12-10T05:43:30;-0.60;99.90
55213;DHT22;41083;52.932;6.674;2022-12-10T05:46:05;-0.60;99.90
55213;DHT22;41083;52.932;6.674;2022-12-10T05:48:32;-0.60;99.90
55213;DHT22;41083;52.932;6.674;2022-12-10T05:51:02;-0.60;99.90
55213;DHT22;41083;52.932;6.674;2022-12-10T05:53:28;-0.60;99.90
55213;DHT22;41083;52.932;6.674;2022-12-10T05:56:00;-0.60;99.90
55213;DHT22;41083;52.932;6.674;2022-12-10T05:58:27;-0.60;99.90
55213;DHT22;41083;52.932;6.674;2022-12-10T06:00:54;-0.60;99.90
55213;DHT22;41083;52.932;6.674;2022-12-10T06:03:19;-0.70;99.90
55213;DHT22;41083;52.932;6.674;2022-12-10T06:05:45;-0.60;99.90
55213;DHT22;41083;52.932;6.674;2022-12-10T06:08:10;-0.70;99.90
55213;DHT22;41083;52.932;6.674;2022-12-10T06:10:36;-0.70;99.90
55213;DHT22;41083;52.932;6.674;2022-12-10T06:13:03;-0.70;99.90
55213;DHT22;41083;52.932;6.674;2022-12-10T06:15:30;-0.70;99.90
55213;DHT22;41083;52.932;6.674;2022-12-10T06:17:56;-0.70;99.90
55213;DHT22;41083;52.932;6.674;2022-12-10T06:20:23;-0.70;99.90
55213;DHT22;41083;52.932;6.674;2022-12-10T06:22:48;-0.70;99.90
55213;DHT22;41083;52.932;6.674;2022-12-10T06:25:14;-0.70;99.90
55213;DHT22;41083;52.932;6.674;2022-12-10T06:27:40;-0.70;99.90
55213;DHT22;41083;52.932;6.674;2022-12-10T06:30:06;-0.70;99.90
55213;DHT22;41083;52.932;6.674;2022-12-10T06:32:32;-0.60;99.90
55213;DHT22;41083;52.932;6.674;2022-12-10T06:34:57;-0.60;99.90
55213;DHT22;41083;52.932;6.674;2022-12-10T06:37:23;-0.60;99.90
55213;DHT22;41083;52.932;6.674;2022-12-10T06:39:51;-0.60;99.90
55213;DHT22;41083;52.932;6.674;2022-12-10T06:42:18;-0.60;99.90
55213;DHT22;41083;52.932;6.674;2022-12-10T06:44:43;-0.60;99.90
55213;DHT22;41083;52.932;6.674;2022-12-10T06:47:09;-0.60;99.90
55213;DHT22;41083;52.932;6.674;2022-12-10T06:49:34;-0.60;99.90
55213;DHT22;41083;52.932;6.674;2022-12-10T06:52:00;-0.60;99.90
55213;DHT22;41083;52.932;6.674;2022-12-10T06:54:25;-0.60;99.90
55213;DHT22;41083;52.932;6.674;2022-12-10T06:56:51;-0.60;99.90
55213;DHT22;41083;52.932;6.674;2022-12-10T06:59:16;-0.60;99.90
55213;DHT22;41083;52.932;6.674;2022-12-10T07:01:42;-0.60;99.90
55213;DHT22;41083;52.932;6.674;2022-12-10T07:04:08;-0.60;99.90
55213;DHT22;41083;52.932;6.674;2022-12-10T07:06:34;-0.60;99.90
55213;DHT22;41083;52.932;6.674;2022-12-10T07:08:59;-0.70;99.90
55213;DHT22;41083;52.932;6.674;2022-12-10T07:11:25;-0.70;99.90
55213;DHT22;41083;52.932;6.674;2022-12-10T07:13:51;-0.70;99.90
55213;DHT22;41083;52.932;6.674;2022-12-10T07:16:20;-0.70;99.90
55213;DHT22;41083;52.932;6.674;2022-12-10T07:18:46;-0.70;99.90
55213;DHT22;41083;52.932;6.674;2022-12-10T07:21:18;-0.60;99.90
55213;DHT22;41083;52.932;6.674;2022-12-10T07:23:44;-0.60;99.90
55213;DHT22;41083;52.932;6.674;2022-12-10T07:26:10;-0.60;99.90
55213;DHT22;41083;52.932;6.674;2022-12-10T07:28:36;-0.60;99.90
55213;DHT22;41083;52.932;6.674;2022-12-10T07:31:06;-0.50;99.90
55213;DHT22;41083;52.932;6.674;2022-12-10T07:33:33;-0.50;99.90
55213;DHT22;41083;52.932;6.674;2022-12-10T07:35:58;-0.50;99.90
55213;DHT22;41083;52.932;6.674;2022-12-10T07:38:24;-0.50;99.90
55213;DHT22;41083;52.932;6.674;2022-12-10T07:40:51;-0.50;99.90
55213;DHT22;41083;52.932;6.674;2022-12-10T07:43:17;-0.50;99.90
55213;DHT22;41083;52.932;6.674;2022-12-10T07:45:43;-0.40;99.90
55213;DHT22;41083;52.932;6.674;2022-12-10T07:48:09;-0.40;99.90
55213;DHT22;41083;52.932;6.674;2022-12-10T07:50:34;-0.40;99.90
55213;DHT22;41083;52.932;6.674;2022-12-10T07:53:00;-0.40;99.90
55213;DHT22;41083;52.932;6.674;2022-12-10T07:55:26;-0.40;99.90
55213;DHT22;41083;52.932;6.674;2022-12-10T07:57:51;-0.40;99.90
55213;DHT22;41083;52.932;6.674;2022-12-10T08:00:17;-0.30;99.90
55213;DHT22;41083;52.932;6.674;2022-12-10T08:02:43;-0.30;99.90
55213;DHT22;41083;52.932;6.674;2022-12-10T08:05:09;-0.30;99.90
55213;DHT22;41083;52.932;6.674;2022-12-10T08:07:34;-0.30;99.90
55213;DHT22;41083;52.932;6.674;2022-12-10T08:10:00;-0.30;99.90
55213;DHT22;41083;52.932;6.674;2022-12-10T08:12:26;-0.30;99.90
55213;DHT22;41083;52.932;6.674;2022-12-10T08:14:51;-0.30;99.90
55213;DHT22;41083;52.932;6.674;2022-12-10T08:17:17;-0.30;99.90
55213;DHT22;41083;52.932;6.674;2022-12-10T08:19:42;-0.30;99.90
55213;DHT22;41083;52.932;6.674;2022-12-10T08:22:08;-0.40;99.90
55213;DHT22;41083;52.932;6.674;2022-12-10T08:24:34;-0.40;99.90
55213;DHT22;41083;52.932;6.674;2022-12-10T08:26:59;-0.40;99.90
55213;DHT22;41083;52.932;6.674;2022-12-10T08:29:25;-0.40;99.90
55213;DHT22;41083;52.932;6.674;2022-12-10T08:31:51;-0.30;99.90
55213;DHT22;41083;52.932;6.674;2022-12-10T08:34:18;-0.40;99.90
55213;DHT22;41083;52.932;6.674;2022-12-10T08:36:44;-0.40;99.90
55213;DHT22;41083;52.932;6.674;2022-12-10T08:39:10;-0.40;99.90
55213;DHT22;41083;52.932;6.674;2022-12-10T08:41:40;-0.40;99.90
55213;DHT22;41083;52.932;6.674;2022-12-10T08:44:06;-0.40;99.90
55213;DHT22;41083;52.932;6.674;2022-12-10T08:46:32;-0.40;99.90
55213;DHT22;41083;52.932;6.674;2022-12-10T08:48:58;-0.40;99.90
55213;DHT22;41083;52.932;6.674;2022-12-10T08:51:24;-0.40;99.90
55213;DHT22;41083;52.932;6.674;2022-12-10T08:53:50;-0.40;99.90
55213;DHT22;41083;52.932;6.674;2022-12-10T08:56:16;-0.40;99.90
55213;DHT22;41083;52.932;6.674;2022-12-10T08:58:41;-0.40;99.90
55213;DHT22;41083;52.932;6.674;2022-12-10T09:01:12;-0.40;99.90
55213;DHT22;41083;52.932;6.674;2022-12-10T09:03:38;-0.30;99.90
55213;DHT22;41083;52.932;6.674;2022-12-10T09:06:05;-0.30;99.90
55213;DHT22;41083;52.932;6.674;2022-12-10T09:08:32;-0.30;99.90
55213;DHT22;41083;52.932;6.674;2022-12-10T09:10:58;-0.30;99.90
55213;DHT22;41083;52.932;6.674;2022-12-10T09:13:29;-0.30;99.90
55213;DHT22;41083;52.932;6.674;2022-12-10T09:15:54;-0.30;99.90
55213;DHT22;41083;52.932;6.674;2022-12-10T09:18:20;-0.20;99.90
55213;DHT22;41083;52.932;6.674;2022-12-10T09:20:45;-0.20;99.90
55213;DHT22;41083;52.932;6.674;2022-12-10T09:23:11;-0.20;99.90
55213;DHT22;41083;52.932;6.674;2022-12-10T09:25:36;-0.20;99.90
55213;DHT22;41083;52.932;6.674;2022-12-10T09:28:02;-0.10;99.90
55213;DHT22;41083;52.932;6.674;2022-12-10T09:30:28;-0.10;99.90
55213;DHT22;41083;52.932;6.674;2022-12-10T09:32:53;-0.10;99.90
55213;DHT22;41083;52.932;6.674;2022-12-10T09:35:19;-0.10;99.90
55213;DHT22;41083;52.932;6.674;2022-12-10T09:37:45;-0.10;99.90
55213;DHT22;41083;52.932;6.674;2022-12-10T09:40:18;-0.10;99.90
55213;DHT22;41083;52.932;6.674;2022-12-10T09:42:58;-0.10;99.90
55213;DHT22;41083;52.932;6.674;2022-12-10T09:45:32;-0.20;99.90
55213;DHT22;41083;52.932;6.674;2022-12-10T09:51:25;-0.20;99.90
55213;DHT22;41083;52.932;6.674;2022-12-10T09:53:53;-0.20;99.90
55213;DHT22;41083;52.932;6.674;2022-12-10T09:56:31;-0.20;99.90
55213;DHT22;41083;52.932;6.674;2022-12-10T09:59:00;-0.20;99.90
55213;DHT22;41083;52.932;6.674;2022-12-10T10:01:29;-0.10;99.90
55213;DHT22;41083;52.932;6.674;2022-12-10T10:03:56;-0.10;99.90
55213;DHT22;41083;52.932;6.674;2022-12-10T10:06:23;-0.10;99.90
55213;DHT22;41083;52.932;6.674;2022-12-10T10:08:53;0.00;99.90
55213;DHT22;41083;52.932;6.674;2022-12-10T10:11:38;0.00;99.90
55213;DHT22;41083;52.932;6.674;2022-12-10T10:14:10;0.00;99.90
55213;DHT22;41083;52.932;6.674;2022-12-10T10:16:46;0.00;99.90
55213;DHT22;41083;52.932;6.674;2022-12-10T10:19:18;0.00;99.90
55213;DHT22;41083;52.932;6.674;2022-12-10T10:21:48;0.00;99.90
55213;DHT22;41083;52.932;6.674;2022-12-10T10:24:16;0.10;99.90
55213;DHT22;41083;52.932;6.674;2022-12-10T10:26:43;0.10;99.90
55213;DHT22;41083;52.932;6.674;2022-12-10T10:29:12;0.20;99.90
55213;DHT22;41083;52.932;6.674;2022-12-10T10:31:40;0.20;99.90
55213;DHT22;41083;52.932;6.674;2022-12-10T10:34:20;0.20;99.90
55213;DHT22;41083;52.932;6.674;2022-12-10T10:36:47;0.20;99.90
55213;DHT22;41083;52.932;6.674;2022-12-10T10:41:47;0.20;99.90
55213;DHT22;41083;52.932;6.674;2022-12-10T10:44:19;0.30;99.90
55213;DHT22;41083;52.932;6.674;2022-12-10T10:46:46;0.30;99.90
55213;DHT22;41083;52.932;6.674;2022-12-10T10:49:29;0.40;99.90
55213;DHT22;41083;52.932;6.674;2022-12-10T10:52:05;0.40;99.90
55213;DHT22;41083;52.932;6.674;2022-12-10T10:54:38;0.40;99.90
55213;DHT22;41083;52.932;6.674;2022-12-10T10:57:14;0.40;99.90
55213;DHT22;41083;52.932;6.674;2022-12-10T10:59:41;0.40;99.90
55213;DHT22;41083;52.932;6.674;2022-12-10T11:04:53;0.50;99.90
55213;DHT22;41083;52.932;6.674;2022-12-10T11:07:23;0.50;99.90
55213;DHT22;41083;52.932;6.674;2022-12-10T11:09:53;0.50;99.90
55213;DHT22;41083;52.932;6.674;2022-12-10T11:12:35;0.50;99.90
55213;DHT22;41083;52.932;6.674;2022-12-10T11:15:01;0.50;99.90
55213;DHT22;41083;52.932;6.674;2022-12-10T11:17:27;0.50;99.90
55213;DHT22;41083;52.932;6.674;2022-12-10T11:20:13;0.50;99.90
55213;DHT22;41083;52.932;6.674;2022-12-10T11:23:07;0.50;99.90
55213;DHT22;41083;52.932;6.674;2022-12-10T11:25:46;0.50;99.90
55213;DHT22;41083;52.932;6.674;2022-12-10T11:42:09;0.60;99.90
55213;DHT22;41083;52.932;6.674;2022-12-10T11:47:48;0.60;99.90
55213;DHT22;41083;52.932;6.674;2022-12-10T11:50:28;0.60;99.90
55213;DHT22;41083;52.932;6.674;2022-12-10T11:53:13;0.50;99.90
55213;DHT22;41083;52.932;6.674;2022-12-10T12:12:19;0.60;99.90
55213;DHT22;41083;52.932;6.674;2022-12-10T12:14:57;0.70;99.90
55213;DHT22;41083;52.932;6.674;2022-12-10T12:17:27;0.70;99.90
55213;DHT22;41083;52.932;6.674;2022-12-10T12:20:03;0.70;99.90
55213;DHT22;41083;52.932;6.674;2022-12-10T12:22:34;0.80;99.90
55213;DHT22;41083;52.932;6.674;2022-12-10T12:25:28;0.80;99.90
55213;DHT22;41083;52.932;6.674;2022-12-10T12:28:31;0.70;99.90
55213;DHT22;41083;52.932;6.674;2022-12-10T12:31:02;0.70;99.90
55213;DHT22;41083;52.932;6.674;2022-12-10T12:33:30;0.70;99.90
55213;DHT22;41083;52.932;6.674;2022-12-10T12:36:06;0.70;99.90
55213;DHT22;41083;52.932;6.674;2022-12-10T12:44:12;0.70;99.90
55213;DHT22;41083;52.932;6.674;2022-12-10T12:46:44;0.70;99.90
55213;DHT22;41083;52.932;6.674;2022-12-10T12:52:00;0.80;99.90
55213;DHT22;41083;52.932;6.674;2022-12-10T12:54:26;0.80;99.90
55213;DHT22;41083;52.932;6.674;2022-12-10T13:00:08;0.80;99.90
55213;DHT22;41083;52.932;6.674;2022-12-10T13:02:55;0.80;99.90
55213;DHT22;41083;52.932;6.674;2022-12-10T13:05:28;0.80;99.90
55213;DHT22;41083;52.932;6.674;2022-12-10T13:15:55;0.90;99.90
55213;DHT22;41083;52.932;6.674;2022-12-10T13:18:37;0.90;99.90
55213;DHT22;41083;52.932;6.674;2022-12-10T13:21:36;0.90;99.90
55213;DHT22;41083;52.932;6.674;2022-12-10T13:24:43;0.90;99.90
55213;DHT22;41083;52.932;6.674;2022-12-10T13:43:27;0.90;99.90
55213;DHT22;41083;52.932;6.674;2022-12-10T13:46:31;0.80;99.90
55213;DHT22;41083;52.932;6.674;2022-12-10T13:49:03;0.80;99.90
55213;DHT22;41083;52.932;6.674;2022-12-10T13:51:43;0.80;99.90
55213;DHT22;41083;52.932;6.674;2022-12-10T13:57:30;0.80;99.90
55213;DHT22;41083;52.932;6.674;2022-12-10T14:00:07;0.70;99.90
55213;DHT22;41083;52.932;6.674;2022-12-10T14:03:09;0.70;99.90
55213;DHT22;41083;52.932;6.674;2022-12-10T14:08:35;0.70;99.90
55213;DHT22;41083;52.932;6.674;2022-12-10T14:11:05;0.70;99.90
55213;DHT22;41083;52.932;6.674;2022-12-10T14:13:43;0.70;99.90
55213;DHT22;41083;52.932;6.674;2022-12-10T14:16:14;0.70;99.90
55213;DHT22;41083;52.932;6.674;2022-12-10T14:18:46;0.70;99.90
55213;DHT22;41083;52.932;6.674;2022-12-10T14:21:15;0.70;99.90
55213;DHT22;41083;52.932;6.674;2022-12-10T14:23:47;0.70;99.90
55213;DHT22;41083;52.932;6.674;2022-12-10T14:26:17;0.70;99.90
55213;DHT22;41083;52.932;6.674;2022-12-10T14:28:55;0.80;99.90
55213;DHT22;41083;52.932;6.674;2022-12-10T14:31:31;0.80;99.90
55213;DHT22;41083;52.932;6.674;2022-12-10T14:34:04;0.80;99.90
55213;DHT22;41083;52.932;6.674;2022-12-10T14:36:34;0.70;99.90
55213;DHT22;41083;52.932;6.674;2022-12-10T14:39:01;0.70;99.90
55213;DHT22;41083;52.932;6.674;2022-12-10T14:41:30;0.80;99.90
55213;DHT22;41083;52.932;6.674;2022-12-10T14:44:02;0.80;99.90
55213;DHT22;41083;52.932;6.674;2022-12-10T14:46:30;0.80;99.90
55213;DHT22;41083;52.932;6.674;2022-12-10T14:48:57;0.80;99.90
55213;DHT22;41083;52.932;6.674;2022-12-10T14:51:25;0.80;99.90
55213;DHT22;41083;52.932;6.674;2022-12-10T14:53:53;0.80;99.90
55213;DHT22;41083;52.932;6.674;2022-12-10T14:56:33;0.80;99.90
55213;DHT22;41083;52.932;6.674;2022-12-10T14:59:22;0.80;99.90
55213;DHT22;41083;52.932;6.674;2022-12-10T15:01:53;0.70;99.90
55213;DHT22;41083;52.932;6.674;2022-12-10T15:04:20;0.70;99.90
55213;DHT22;41083;52.932;6.674;2022-12-10T15:06:46;0.80;99.90
55213;DHT22;41083;52.932;6.674;2022-12-10T15:09:21;0.80;99.90
55213;DHT22;41083;52.932;6.674;2022-12-10T15:11:56;0.80;99.90
55213;DHT22;41083;52.932;6.674;2022-12-10T15:14:23;0.70;99.90
55213;DHT22;41083;52.932;6.674;2022-12-10T15:16:50;0.80;99.90
55213;DHT22;41083;52.932;6.674;2022-12-10T15:21:46;0.80;99.90
55213;DHT22;41083;52.932;6.674;2022-12-10T15:24:26;0.70;99.90
55213;DHT22;41083;52.932;6.674;2022-12-10T15:26:53;0.70;99.90
55213;DHT22;41083;52.932;6.674;2022-12-10T15:31:48;0.70;99.90
55213;DHT22;41083;52.932;6.674;2022-12-10T15:34:15;0.80;99.90
55213;DHT22;41083;52.932;6.674;2022-12-10T15:36:56;0.80;99.90
55213;DHT22;41083;52.932;6.674;2022-12-10T15:39:32;0.80;99.90
55213;DHT22;41083;52.932;6.674;2022-12-10T15:42:07;0.80;99.90
55213;DHT22;41083;52.932;6.674;2022-12-10T15:44:39;0.80;99.90
55213;DHT22;41083;52.932;6.674;2022-12-10T15:47:14;0.80;99.90
55213;DHT22;41083;52.932;6.674;2022-12-10T15:49:41;0.80;99.90
55213;DHT22;41083;52.932;6.674;2022-12-10T15:52:12;0.90;99.90
55213;DHT22;41083;52.932;6.674;2022-12-10T15:54:41;0.80;99.90
55213;DHT22;41083;52.932;6.674;2022-12-10T15:57:19;0.90;99.90
55213;DHT22;41083;52.932;6.674;2022-12-10T15:59:47;0.90;99.90
55213;DHT22;41083;52.932;6.674;2022-12-10T16:04:48;0.90;99.90
55213;DHT22;41083;52.932;6.674;2022-12-10T16:07:15;0.90;99.90
55213;DHT22;41083;52.932;6.674;2022-12-10T16:09:43;0.90;99.90
55213;DHT22;41083;52.932;6.674;2022-12-10T16:12:11;1.00;99.90
55213;DHT22;41083;52.932;6.674;2022-12-10T16:14:37;1.00;99.90
55213;DHT22;41083;52.932;6.674;2022-12-10T16:17:03;0.90;99.90
55213;DHT22;41083;52.932;6.674;2022-12-10T16:19:29;0.90;99.90
55213;DHT22;41083;52.932;6.674;2022-12-10T16:21:54;0.90;99.90
55213;DHT22;41083;52.932;6.674;2022-12-10T16:24:20;0.90;99.90
55213;DHT22;41083;52.932;6.674;2022-12-10T16:26:46;0.90;99.90
55213;DHT22;41083;52.932;6.674;2022-12-10T16:29:11;0.90;99.90
55213;DHT22;41083;52.932;6.674;2022-12-10T16:31:37;0.90;99.90
55213;DHT22;41083;52.932;6.674;2022-12-10T16:34:02;0.90;99.90
55213;DHT22;41083;52.932;6.674;2022-12-10T16:36:28;0.90;99.90
55213;DHT22;41083;52.932;6.674;2022-12-10T16:38:53;0.90;99.90
55213;DHT22;41083;52.932;6.674;2022-12-10T16:41:22;0.90;99.90
55213;DHT22;41083;52.932;6.674;2022-12-10T16:43:48;0.80;99.90
55213;DHT22;41083;52.932;6.674;2022-12-10T16:46:14;0.80;99.90
55213;DHT22;41083;52.932;6.674;2022-12-10T16:48:40;0.80;99.90
55213;DHT22;41083;52.932;6.674;2022-12-10T16:51:18;0.80;99.90
55213;DHT22;41083;52.932;6.674;2022-12-10T16:53:46;0.80;99.90
55213;DHT22;41083;52.932;6.674;2022-12-10T16:56:14;0.80;99.90
55213;DHT22;41083;52.932;6.674;2022-12-10T16:58:40;0.80;99.90
55213;DHT22;41083;52.932;6.674;2022-12-10T17:01:14;0.80;99.90
55213;DHT22;41083;52.932;6.674;2022-12-10T17:03:40;0.80;99.90
55213;DHT22;41083;52.932;6.674;2022-12-10T17:06:09;0.80;99.90
55213;DHT22;41083;52.932;6.674;2022-12-10T17:08:36;0.80;99.90
55213;DHT22;41083;52.932;6.674;2022-12-10T17:11:17;0.80;99.90
55213;DHT22;41083;52.932;6.674;2022-12-10T17:14:03;0.80;99.90
55213;DHT22;41083;52.932;6.674;2022-12-10T17:16:30;0.70;99.90
55213;DHT22;41083;52.932;6.674;2022-12-10T17:18:56;0.70;99.90
55213;DHT22;41083;52.932;6.674;2022-12-10T17:21:22;0.70;99.90
55213;DHT22;41083;52.932;6.674;2022-12-10T17:23:47;0.70;99.90
55213;DHT22;41083;52.932;6.674;2022-12-10T17:26:31;0.70;99.90
55213;DHT22;41083;52.932;6.674;2022-12-10T17:29:02;0.70;99.90
55213;DHT22;41083;52.932;6.674;2022-12-10T17:31:28;0.70;99.90
55213;DHT22;41083;52.932;6.674;2022-12-10T17:33:54;0.70;99.90
55213;DHT22;41083;52.932;6.674;2022-12-10T17:36:19;0.70;99.90
55213;DHT22;41083;52.932;6.674;2022-12-10T17:38:45;0.60;99.90
55213;DHT22;41083;52.932;6.674;2022-12-10T17:41:11;0.70;99.90
55213;DHT22;41083;52.932;6.674;2022-12-10T17:43:41;0.70;99.90